Time;durP1;ratioP1;P1;durP2;ratioP2;P2;SDS_P1;SDS_P2;PMS_P1;PMS_P2;Temp;Humidity;BMP_temperature;BMP_pressure;BME280_temperature;BME280_humidity;BME280_pressure;Samples;Min_cycle;Max_cycle;Signal;HPM_P1;HPM_P2
2022/01/19 00:01:19;;;;;;;13.60;6.18;;;-3.80;99.90;;;;;;5016701;28;20026;-93
2022/01/19 00:03:44;;;;;;;8.25;4.00;;;-3.70;99.90;;;;;;5017194;28;20058;-93
2022/01/19 00:06:12;;;;;;;6.80;3.95;;;-3.70;99.90;;;;;;5017183;28;20076;-93
2022/01/19 00:08:38;;;;;;;13.07;5.13;;;-3.80;99.90;;;;;;5016652;28;20033;-93
2022/01/19 00:11:04;;;;;;;7.93;3.75;;;-3.70;99.90;;;;;;5016683;28;20419;-93
2022/01/19 00:13:30;;;;;;;12.05;5.75;;;-3.80;99.90;;;;;;5016515;28;20029;-93
2022/01/19 00:15:58;;;;;;;11.63;5.85;;;-3.70;99.90;;;;;;5017175;28;20026;-93
2022/01/19 00:18:25;;;;;;;15.82;6.43;;;-3.70;99.90;;;;;;5016468;28;20022;-93
2022/01/19 00:20:53;;;;;;;8.30;3.30;;;-3.70;99.90;;;;;;5000214;28;20030;-93
2022/01/19 00:23:20;;;;;;;6.78;3.88;;;-3.70;99.90;;;;;;5016864;28;20026;-93
2022/01/19 00:25:49;;;;;;;8.82;3.03;;;-3.70;99.90;;;;;;5016054;28;20052;-95
2022/01/19 00:28:16;;;;;;;7.82;3.00;;;-3.60;99.90;;;;;;5016481;28;20026;-93
2022/01/19 00:30:42;;;;;;;8.00;4.00;;;-3.70;99.90;;;;;;5016253;28;20014;-93
2022/01/19 00:33:08;;;;;;;10.32;3.80;;;-3.70;99.90;;;;;;5016510;28;20112;-92
2022/01/19 00:35:35;;;;;;;7.28;3.13;;;-3.70;99.90;;;;;;5000860;28;20033;-93
2022/01/19 00:38:02;;;;;;;11.23;3.10;;;-3.70;99.90;;;;;;5016895;28;20519;-93
2022/01/19 00:40:28;;;;;;;5.15;2.97;;;-3.80;99.90;;;;;;5015800;28;20026;-93
2022/01/19 00:42:54;;;;;;;10.57;3.42;;;-3.80;99.90;;;;;;5017225;28;20029;-96
2022/01/19 00:45:21;;;;;;;6.07;3.00;;;-3.80;99.90;;;;;;5016431;28;20033;-93
2022/01/19 00:47:46;;;;;;;6.85;3.25;;;-3.90;99.90;;;;;;5016216;28;20034;-93
2022/01/19 00:50:16;;;;;;;9.82;3.40;;;-3.90;99.90;;;;;;5017120;28;20030;-93
2022/01/19 00:52:41;;;;;;;6.18;3.20;;;-3.90;99.90;;;;;;5016072;28;20559;-93
2022/01/19 00:55:11;;;;;;;9.63;3.00;;;-3.90;99.90;;;;;;5016707;28;20060;-93
2022/01/19 00:57:37;;;;;;;5.93;3.10;;;-3.90;99.90;;;;;;5016045;28;20042;-93
2022/01/19 01:00:09;;;;;;;7.63;3.50;;;-3.90;99.90;;;;;;5015384;28;20058;-93
2022/01/19 01:02:34;;;;;;;12.02;4.30;;;-3.90;99.90;;;;;;5011896;28;20104;-93
2022/01/19 01:05:01;;;;;;;10.40;4.03;;;-3.90;99.90;;;;;;5015867;28;20476;-93
2022/01/19 01:07:27;;;;;;;20.20;7.35;;;-3.90;99.90;;;;;;5015595;28;20502;-93
2022/01/19 01:09:55;;;;;;;11.13;5.60;;;-3.90;99.90;;;;;;5015839;28;20109;-93
2022/01/19 01:12:26;;;;;;;16.13;6.80;;;-4.00;99.90;;;;;;5016177;28;20076;-93
2022/01/19 01:20:21;;;;;;;17.92;6.88;;;-4.00;99.90;;;;;;5016878;28;20073;-92
2022/01/19 01:22:47;;;;;;;11.00;5.60;;;-4.00;99.90;;;;;;4998777;28;20038;-93
2022/01/19 01:25:13;;;;;;;13.60;5.00;;;-3.90;99.90;;;;;;5015539;28;20149;-92
2022/01/19 01:27:40;;;;;;;8.73;4.32;;;-4.00;99.90;;;;;;5016091;28;20033;-92
2022/01/19 01:30:08;;;;;;;6.05;2.92;;;-4.00;99.90;;;;;;5015823;28;20057;-93
2022/01/19 01:32:34;;;;;;;7.85;3.83;;;-3.90;99.90;;;;;;5016052;28;20022;-93
2022/01/19 01:34:59;;;;;;;8.90;3.58;;;-3.90;99.90;;;;;;5014912;28;20427;-93
2022/01/19 01:37:25;;;;;;;9.20;3.83;;;-3.90;99.90;;;;;;5015085;28;20029;-93
2022/01/19 01:39:52;;;;;;;8.15;3.25;;;-3.90;99.90;;;;;;5014954;28;20057;-93
2022/01/19 01:42:21;;;;;;;5.45;3.13;;;-3.90;99.90;;;;;;5014637;28;20080;-93
2022/01/19 01:44:50;;;;;;;13.20;4.97;;;-4.00;99.90;;;;;;4998583;28;20037;-93
2022/01/19 01:47:18;;;;;;;11.63;4.23;;;-4.00;99.90;;;;;;5015022;28;20026;-92
2022/01/19 01:53:26;;;;;;;7.50;3.13;;;-4.00;99.90;;;;;;5015588;28;20334;-93
2022/01/19 01:55:21;;;;;;;9.38;4.13;;;-4.00;99.90;;;;;;5016279;28;20388;-93
2022/01/19 01:57:48;;;;;;;14.87;4.90;;;-4.00;99.90;;;;;;5014985;28;20030;-94
2022/01/19 02:00:18;;;;;;;8.20;3.47;;;-4.00;99.90;;;;;;4998056;28;20058;-92
2022/01/19 02:02:46;;;;;;;6.97;3.67;;;-4.00;99.90;;;;;;5014662;28;20485;-93
2022/01/19 02:05:15;;;;;;;11.30;4.35;;;-4.00;99.90;;;;;;5015720;28;20029;-92
2022/01/19 02:08:10;;;;;;;8.25;3.47;;;-4.00;99.90;;;;;;5014123;28;20116;-93
2022/01/19 02:10:56;;;;;;;8.10;3.70;;;-4.00;99.90;;;;;;5014891;28;20017;-92
2022/01/19 02:22:04;;;;;;;9.10;3.50;;;-3.80;99.90;;;;;;5014068;28;20037;-93
2022/01/19 02:24:39;;;;;;;5.97;3.25;;;-3.90;99.90;;;;;;5014774;28;20022;-93
2022/01/19 02:41:01;;;;;;;7.72;3.50;;;-4.00;99.90;;;;;;5015492;28;20084;-93
2022/01/19 02:43:29;;;;;;;8.88;4.40;;;-4.10;99.90;;;;;;5013521;28;20034;-93
2022/01/19 02:51:23;;;;;;;10.15;4.00;;;-4.10;99.90;;;;;;5025628;28;20044;-93
2022/01/19 02:53:50;;;;;;;8.95;3.90;;;-4.10;99.90;;;;;;5033364;28;20033;-93
2022/01/19 02:56:26;;;;;;;6.53;3.78;;;-4.00;99.90;;;;;;5033739;28;20049;-93
2022/01/19 02:58:58;;;;;;;7.57;3.45;;;-4.10;99.90;;;;;;5033013;28;20037;-93
2022/01/19 03:09:28;;;;;;;12.20;4.60;;;-4.30;99.90;;;;;;5015278;28;20121;-93
2022/01/19 03:11:55;;;;;;;8.70;3.38;;;-4.30;99.90;;;;;;5015107;28;20097;-93
2022/01/19 03:14:21;;;;;;;10.40;3.95;;;-4.30;99.90;;;;;;5013590;28;20022;-92
2022/01/19 03:16:48;;;;;;;11.02;4.28;;;-4.30;99.90;;;;;;5013304;28;20491;-93
2022/01/19 03:19:15;;;;;;;7.88;3.03;;;-4.30;99.90;;;;;;5014045;28;20022;-93
2022/01/19 03:21:41;;;;;;;9.45;3.38;;;-4.30;99.90;;;;;;5013262;28;20065;-93
2022/01/19 03:24:11;;;;;;;4.95;3.55;;;-4.30;99.90;;;;;;5014797;28;20054;-93
2022/01/19 03:26:39;;;;;;;8.27;3.45;;;-4.30;99.90;;;;;;5013432;28;20092;-92
2022/01/19 03:29:04;;;;;;;8.88;3.20;;;-4.30;99.90;;;;;;5013245;28;20022;-92
2022/01/19 03:31:30;;;;;;;7.10;3.50;;;-4.30;99.90;;;;;;5025007;28;20144;-92
2022/01/19 03:33:56;;;;;;;6.35;2.92;;;-4.30;99.90;;;;;;5033102;28;20032;-95
2022/01/19 03:36:21;;;;;;;6.55;3.40;;;-4.40;99.90;;;;;;5021725;28;20030;-92
2022/01/19 03:38:47;;;;;;;6.60;3.45;;;-4.40;99.90;;;;;;5016438;28;20030;-93
2022/01/19 03:41:13;;;;;;;7.18;3.45;;;-4.50;99.90;;;;;;5013201;28;20057;-93
2022/01/19 03:43:39;;;;;;;7.25;3.95;;;-4.60;99.90;;;;;;5013300;28;20026;-93
2022/01/19 03:46:13;;;;;;;9.98;3.60;;;-4.60;99.90;;;;;;5012906;28;20026;-95
2022/01/19 03:48:57;;;;;;;10.35;4.18;;;-4.70;99.90;;;;;;5013187;28;20395;-94
2022/01/19 03:51:24;;;;;;;7.97;3.95;;;-4.70;99.90;;;;;;5013607;28;20072;-93
2022/01/19 03:53:50;;;;;;;8.35;4.32;;;-4.60;99.90;;;;;;5013376;28;20026;-93
2022/01/19 03:56:17;;;;;;;9.50;3.90;;;-4.70;99.90;;;;;;5013365;28;20049;-93
2022/01/19 03:58:42;;;;;;;8.93;4.07;;;-4.60;99.90;;;;;;5012804;28;20022;-93
2022/01/19 04:01:09;;;;;;;9.48;4.20;;;-4.60;99.90;;;;;;5012997;28;20172;-93
2022/01/19 04:06:27;;;;;;;8.10;3.70;;;-4.60;99.90;;;;;;5019330;28;20502;-93
2022/01/19 04:08:53;;;;;;;7.07;3.20;;;-4.60;99.90;;;;;;5032773;28;20029;-93
2022/01/19 04:11:21;;;;;;;6.82;3.30;;;-4.60;99.90;;;;;;5032863;28;20152;-93
2022/01/19 04:16:24;;;;;;;7.43;3.40;;;-4.60;99.90;;;;;;5037831;28;20464;-93
2022/01/19 04:18:54;;;;;;;5.95;3.13;;;-4.60;99.90;;;;;;5035835;28;20033;-93
2022/01/19 04:21:20;;;;;;;5.57;3.33;;;-4.60;99.90;;;;;;5036995;28;20026;-93
2022/01/19 04:23:49;;;;;;;8.70;3.63;;;-4.60;99.90;;;;;;5030092;28;20428;-93
2022/01/19 04:26:14;;;;;;;7.68;3.63;;;-4.70;99.90;;;;;;5018993;28;20036;-94
2022/01/19 04:28:41;;;;;;;10.55;3.60;;;-4.70;99.90;;;;;;5018597;28;20029;-96
2022/01/19 04:31:08;;;;;;;7.60;3.10;;;-4.80;99.90;;;;;;5016160;28;20058;-94
2022/01/19 04:33:39;;;;;;;8.23;3.40;;;-4.80;99.90;;;;;;5016168;28;20030;-95
2022/01/19 04:36:20;;;;;;;5.25;3.05;;;-4.90;99.90;;;;;;5016180;28;20025;-94
2022/01/19 04:39:18;;;;;;;6.55;2.70;;;-4.90;99.90;;;;;;5016390;28;20033;-93
2022/01/19 05:05:53;;;;;;;4.28;2.50;;;-4.80;99.90;;;;;;5018212;28;20022;-93
2022/01/19 05:08:44;;;;;;;7.03;3.10;;;-4.80;99.90;;;;;;5015621;28;20176;-94
2022/01/19 05:13:51;;;;;;;7.75;2.92;;;-4.90;99.90;;;;;;5017328;28;20033;-95
2022/01/19 05:16:21;;;;;;;6.45;2.97;;;-5.00;99.90;;;;;;5015852;28;20026;-94
2022/01/19 05:18:49;;;;;;;8.65;3.47;;;-5.10;99.90;;;;;;5008981;28;20468;-96
2022/01/19 05:21:16;;;;;;;5.55;3.03;;;-5.20;99.90;;;;;;5014992;28;20121;-94
2022/01/19 05:23:42;;;;;;;7.13;3.30;;;-5.20;99.90;;;;;;5015338;28;20061;-95
2022/01/19 05:26:08;;;;;;;7.88;3.47;;;-5.30;99.90;;;;;;5015328;28;20034;-94
2022/01/19 05:28:34;;;;;;;5.82;2.95;;;-5.50;99.90;;;;;;5015252;28;20029;-93
2022/01/19 05:31:00;;;;;;;7.65;2.33;;;-5.50;99.90;;;;;;5015197;28;20026;-94
2022/01/19 05:33:26;;;;;;;8.05;3.10;;;-5.60;99.90;;;;;;5014999;28;20277;-94
2022/01/19 05:35:52;;;;;;;4.10;2.58;;;-5.60;99.90;;;;;;5014920;28;20036;-94
2022/01/19 05:38:17;;;;;;;8.75;3.75;;;-5.60;99.90;;;;;;5015819;28;20034;-94
2022/01/19 05:40:43;;;;;;;7.10;3.38;;;-5.70;99.90;;;;;;5014983;28;20499;-94
2022/01/19 05:43:10;;;;;;;5.38;3.03;;;-5.70;99.90;;;;;;5015716;28;20030;-94
2022/01/19 14:33:09;;;;;;;38.35;16.08;;;-3.50;98.80;;;;;;5091953;27;20386;-93
2022/01/19 14:35:40;;;;;;;23.35;12.63;;;-3.50;98.50;;;;;;5054244;28;20486;-93
2022/01/19 14:38:36;;;;;;;33.13;15.55;;;-3.60;99.60;;;;;;5090617;28;20025;-93
2022/01/19 14:41:10;;;;;;;37.38;15.52;;;-3.60;99.90;;;;;;5075445;28;20025;-93
2022/01/19 14:43:49;;;;;;;44.97;18.85;;;-3.70;99.90;;;;;;5071502;28;20028;-93
2022/01/19 14:46:25;;;;;;;54.38;22.25;;;-3.70;99.90;;;;;;5087256;28;20099;-93
2022/01/19 14:48:52;;;;;;;51.42;20.95;;;-3.80;99.90;;;;;;5071262;28;20078;-94
2022/01/19 14:51:28;;;;;;;47.20;21.67;;;-3.80;99.90;;;;;;5075653;28;20107;-93
2022/01/19 14:54:05;;;;;;;54.60;22.48;;;-3.80;99.90;;;;;;5070364;28;20035;-93
2022/01/19 14:56:33;;;;;;;52.95;23.55;;;-3.80;99.90;;;;;;5070225;28;20025;-93
2022/01/19 15:00:22;;;;;;;53.92;21.55;;;-3.80;99.90;;;;;;5092350;27;20382;-93
2022/01/19 15:02:57;;;;;;;50.80;21.58;;;-3.80;99.90;;;;;;5091030;28;20060;-94
2022/01/19 15:05:24;;;;;;;42.60;20.15;;;-3.80;99.90;;;;;;5090722;28;20482;-94
2022/01/19 15:07:51;;;;;;;41.17;19.30;;;-3.90;99.90;;;;;;5073581;28;20063;-94
2022/01/19 15:10:20;;;;;;;45.78;18.90;;;-3.80;99.90;;;;;;5074562;28;20098;-95
2022/01/19 15:12:53;;;;;;;42.60;19.40;;;-3.70;99.90;;;;;;5076471;28;20117;-96
2022/01/19 15:15:23;;;;;;;32.72;16.92;;;-3.70;99.90;;;;;;5071261;28;20119;-93
2022/01/19 15:17:50;;;;;;;43.10;18.65;;;-3.70;99.90;;;;;;5070306;28;20029;-93
2022/01/19 15:20:17;;;;;;;39.20;17.92;;;-3.60;99.90;;;;;;5069882;28;20087;-93
2022/01/19 15:22:44;;;;;;;35.15;16.70;;;-3.60;99.90;;;;;;5070222;28;20115;-93
2022/01/19 15:25:11;;;;;;;41.47;19.20;;;-3.60;99.90;;;;;;5070679;28;20028;-93
2022/01/19 15:27:37;;;;;;;38.45;18.83;;;-3.50;99.90;;;;;;5070777;28;20020;-93
2022/01/19 15:30:08;;;;;;;41.38;20.50;;;-3.50;99.90;;;;;;5070275;28;20499;-93
2022/01/19 15:32:46;;;;;;;50.65;26.48;;;-3.50;99.90;;;;;;5070405;28;20364;-96
2022/01/19 15:35:13;;;;;;;49.35;23.33;;;-3.50;99.90;;;;;;5071155;28;20098;-94
2022/01/19 15:37:39;;;;;;;45.30;22.15;;;-3.50;99.90;;;;;;5070753;28;20021;-93
2022/01/19 15:40:12;;;;;;;44.47;23.02;;;-3.60;99.90;;;;;;5069736;28;20451;-95
2022/01/19 15:42:43;;;;;;;48.20;22.08;;;-3.60;99.90;;;;;;5069883;28;20025;-94
2022/01/19 15:45:08;;;;;;;;;;;-3.60;99.90;;;;;;5070223;28;20016;-94
2022/01/19 15:47:34;;;;;;;46.00;22.10;;;-3.60;99.90;;;;;;5070018;28;19912;-95
2022/01/19 15:50:00;;;;;;;66.60;28.42;;;-3.60;99.90;;;;;;5069475;28;20024;-95
2022/01/19 15:52:26;;;;;;;92.47;36.72;;;-3.50;99.90;;;;;;5069605;28;20025;-94
2022/01/19 15:54:52;;;;;;;97.88;39.03;;;-3.50;99.90;;;;;;5070052;28;20479;-93
2022/01/19 15:57:18;;;;;;;92.38;37.80;;;-3.40;99.90;;;;;;5070596;28;20111;-94
2022/01/19 15:59:44;;;;;;;99.68;38.70;;;-3.40;99.90;;;;;;5069485;28;20045;-95
2022/01/19 16:02:10;;;;;;;79.38;32.60;;;-3.30;99.90;;;;;;5071744;28;20444;-94
2022/01/19 16:04:35;;;;;;;78.18;32.30;;;-3.20;99.90;;;;;;5071001;28;20024;-93
2022/01/19 16:07:01;;;;;;;72.20;31.20;;;-3.20;99.90;;;;;;5069578;28;20025;-94
2022/01/19 16:09:27;;;;;;;70.13;30.65;;;-3.10;99.90;;;;;;5069059;28;20501;-94
2022/01/19 16:11:54;;;;;;;67.20;28.85;;;-3.10;99.90;;;;;;5055602;28;20033;-95
2022/01/19 16:14:21;;;;;;;76.38;31.70;;;-3.00;99.90;;;;;;5056813;28;20029;-95
2022/01/19 16:16:47;;;;;;;93.43;35.63;;;-3.00;99.90;;;;;;5056794;28;20387;-93
2022/01/19 16:19:14;;;;;;;94.60;38.33;;;-3.00;99.90;;;;;;5055759;28;20029;-94
2022/01/19 16:21:42;;;;;;;89.45;36.65;;;-2.90;99.90;;;;;;5056109;28;20023;-95
2022/01/19 16:26:54;;;;;;;70.03;28.70;;;-2.90;99.90;;;;;;5057260;28;20497;-94
2022/01/19 16:29:22;;;;;;;65.28;28.95;;;-2.80;99.90;;;;;;5055681;28;20024;-95
2022/01/19 16:31:48;;;;;;;57.78;25.77;;;-2.80;99.90;;;;;;5055619;28;20025;-94
2022/01/19 16:34:15;;;;;;;56.10;25.42;;;-2.80;99.90;;;;;;5056016;28;20029;-94
2022/01/19 16:36:41;;;;;;;59.38;23.80;;;-2.80;99.90;;;;;;5056013;28;20029;-95
2022/01/19 16:39:07;;;;;;;63.10;25.92;;;-2.80;99.90;;;;;;5055606;28;20115;-94
2022/01/19 16:41:36;;;;;;;54.72;24.27;;;-2.80;99.90;;;;;;5055233;28;20053;-93
2022/01/19 16:44:04;;;;;;;61.75;25.17;;;-2.80;99.90;;;;;;5054017;28;20056;-92
2022/01/19 16:46:31;;;;;;;64.47;25.80;;;-2.90;99.90;;;;;;5054049;28;20021;-95
2022/01/19 16:49:05;;;;;;;58.72;23.17;;;-2.90;99.90;;;;;;5054218;28;20021;-93
2022/01/19 16:51:37;;;;;;;57.38;23.13;;;-3.00;99.90;;;;;;5054571;28;20108;-93
2022/01/19 16:54:04;;;;;;;55.10;22.38;;;-3.00;99.90;;;;;;5055288;28;20048;-93
2022/01/19 16:56:30;;;;;;;52.30;21.33;;;-3.10;99.90;;;;;;5055340;28;20021;-94
2022/01/19 16:58:55;;;;;;;51.17;22.60;;;-3.10;99.90;;;;;;5054914;28;20072;-93
2022/01/19 17:01:22;;;;;;;58.75;22.70;;;-3.10;99.90;;;;;;5054968;28;20480;-93
2022/01/19 17:03:48;;;;;;;61.28;25.15;;;-3.20;99.90;;;;;;5055548;28;20414;-93
2022/01/19 17:06:15;;;;;;;62.70;27.48;;;-3.20;99.90;;;;;;5054974;28;20020;-93
2022/01/19 17:08:43;;;;;;;77.53;30.75;;;-3.20;99.90;;;;;;5055172;28;20025;-93
2022/01/19 17:11:09;;;;;;;71.18;29.48;;;-3.30;99.90;;;;;;5054755;28;20403;-93
2022/01/19 17:13:39;;;;;;;108.72;43.75;;;-3.30;99.90;;;;;;5055030;28;20083;-93
2022/01/19 17:16:18;;;;;;;94.50;40.67;;;-3.40;99.90;;;;;;5053356;28;20028;-93
2022/01/19 17:18:46;;;;;;;94.53;43.42;;;-3.40;99.90;;;;;;5054703;28;20119;-94
2022/01/19 17:21:12;;;;;;;69.15;34.13;;;-3.40;99.90;;;;;;5054494;28;20027;-95
2022/01/19 17:23:45;;;;;;;61.65;27.75;;;-3.40;99.90;;;;;;5053703;28;20021;-94
2022/01/19 17:26:11;;;;;;;59.33;24.88;;;-3.40;99.90;;;;;;5054064;28;20032;-93
2022/01/19 17:28:37;;;;;;;60.88;28.15;;;-3.40;99.90;;;;;;5054685;28;20482;-94
2022/01/19 17:31:03;;;;;;;74.60;34.72;;;-3.40;99.90;;;;;;5054154;28;20029;-94
2022/01/19 17:33:28;;;;;;;57.70;27.67;;;-3.50;99.90;;;;;;5055642;28;20098;-94
2022/01/19 17:35:54;;;;;;;54.97;27.73;;;-3.40;99.90;;;;;;5053962;28;20426;-93
2022/01/19 17:38:20;;;;;;;52.60;25.75;;;-3.50;99.90;;;;;;5053762;28;20059;-93
2022/01/19 17:40:46;;;;;;;48.13;24.55;;;-3.50;99.90;;;;;;5054557;28;20056;-94
2022/01/19 17:43:14;;;;;;;54.13;25.50;;;-3.50;99.90;;;;;;5053898;28;20505;-93
2022/01/19 17:45:50;;;;;;;57.22;28.33;;;-3.50;99.90;;;;;;5053690;28;20368;-94
2022/01/19 17:53:11;;;;;;;60.00;29.15;;;-3.60;99.90;;;;;;5055213;28;20036;-94
2022/01/19 17:55:38;;;;;;;51.40;25.90;;;-3.60;99.90;;;;;;5052711;28;20467;-94
2022/01/19 17:58:05;;;;;;;61.30;29.02;;;-3.60;99.90;;;;;;5053789;28;20052;-94
2022/01/19 18:00:32;;;;;;;61.72;31.08;;;-3.60;99.90;;;;;;5053671;28;20070;-94
2022/01/19 18:02:58;;;;;;;52.58;27.38;;;-3.60;99.90;;;;;;5053536;28;20043;-93
2022/01/19 18:05:24;;;;;;;59.65;28.58;;;-3.70;99.90;;;;;;5053128;28;20463;-94
2022/01/19 18:07:50;;;;;;;55.78;26.75;;;-3.70;99.90;;;;;;5053203;28;20025;-94
2022/01/19 18:10:16;;;;;;;73.32;32.75;;;-3.70;99.90;;;;;;5053686;28;20072;-94
2022/01/19 18:12:43;;;;;;;68.55;34.05;;;-3.70;99.90;;;;;;5053337;28;20049;-94
2022/01/19 18:15:09;;;;;;;68.88;34.13;;;-3.70;99.90;;;;;;5054235;28;20025;-94
2022/01/19 18:17:35;;;;;;;75.13;36.00;;;-3.70;99.90;;;;;;5050768;28;20533;-94
2022/01/19 18:20:01;;;;;;;59.20;30.20;;;-3.70;99.90;;;;;;5033627;28;20021;-94
2022/01/19 18:22:26;;;;;;;65.00;33.58;;;-3.80;99.90;;;;;;5033405;28;20383;-93
2022/01/19 18:24:52;;;;;;;59.65;28.83;;;-3.80;99.90;;;;;;5033393;28;20476;-93
2022/01/19 18:27:20;;;;;;;69.90;34.15;;;-3.80;99.90;;;;;;5033933;28;20052;-93
2022/01/19 18:29:47;;;;;;;67.38;32.22;;;-3.90;99.90;;;;;;5047262;28;20119;-93
2022/01/19 18:32:12;;;;;;;65.25;31.58;;;-3.90;99.90;;;;;;5053487;28;20083;-93
2022/01/19 18:34:38;;;;;;;67.07;31.98;;;-4.00;99.90;;;;;;5052987;28;20059;-93
2022/01/19 18:37:05;;;;;;;67.38;32.17;;;-4.00;99.90;;;;;;5053582;28;20033;-93
2022/01/19 18:39:32;;;;;;;74.95;33.53;;;-4.20;99.90;;;;;;5053155;28;20025;-93
2022/01/19 18:41:57;;;;;;;78.97;34.72;;;-4.20;99.90;;;;;;5053176;28;20025;-93
2022/01/19 18:44:23;;;;;;;78.43;33.80;;;-4.20;99.90;;;;;;5043874;28;20027;-94
2022/01/19 18:46:49;;;;;;;86.32;34.90;;;-4.30;99.90;;;;;;5073309;28;20024;-93
2022/01/19 18:49:14;;;;;;;84.88;33.95;;;-4.40;99.90;;;;;;5073239;28;20021;-94
2022/01/19 18:51:40;;;;;;;74.72;33.10;;;-4.40;99.90;;;;;;5072981;28;20024;-94
2022/01/19 18:54:06;;;;;;;88.10;35.47;;;-4.40;99.90;;;;;;5073269;28;20024;-94
2022/01/19 18:56:32;;;;;;;89.95;38.55;;;-4.40;99.90;;;;;;5073255;28;20035;-93
2022/01/19 18:59:00;;;;;;;87.35;38.40;;;-4.40;99.90;;;;;;5073012;28;20052;-93
2022/01/19 19:01:26;;;;;;;90.28;37.97;;;-4.40;99.90;;;;;;5072890;28;20025;-94
2022/01/19 19:03:53;;;;;;;92.60;38.72;;;-4.50;99.90;;;;;;5056414;28;20161;-94
2022/01/19 19:06:20;;;;;;;84.43;36.63;;;-4.40;99.90;;;;;;5053084;28;20017;-94
2022/01/19 19:08:47;;;;;;;85.82;37.42;;;-4.40;99.90;;;;;;5053160;28;20021;-95
2022/01/19 19:11:20;;;;;;;94.05;38.05;;;-4.40;99.90;;;;;;5052872;28;20123;-94
2022/01/19 19:13:47;;;;;;;89.03;36.10;;;-4.40;99.90;;;;;;5053075;28;20025;-94
2022/01/19 19:16:13;;;;;;;93.15;37.58;;;-4.30;99.90;;;;;;5053096;28;20056;-94
2022/01/19 19:18:39;;;;;;;84.10;34.65;;;-4.20;99.90;;;;;;5053043;28;20025;-94
2022/01/19 19:21:05;;;;;;;100.80;38.15;;;-4.20;99.90;;;;;;5052865;28;20024;-94
2022/01/19 19:23:30;;;;;;;91.20;36.20;;;-4.20;99.90;;;;;;5052855;28;20025;-95
2022/01/19 19:25:56;;;;;;;93.70;35.55;;;-4.20;99.90;;;;;;5053119;28;20055;-95
2022/01/19 19:28:22;;;;;;;77.97;32.38;;;-4.10;99.90;;;;;;5052808;28;20029;-94
2022/01/19 19:30:49;;;;;;;82.38;31.23;;;-4.10;99.90;;;;;;5052719;28;20025;-94
2022/01/19 19:33:16;;;;;;;64.82;27.67;;;-4.10;99.90;;;;;;5052618;28;20116;-96
2022/01/19 19:35:42;;;;;;;72.22;29.75;;;-4.00;99.90;;;;;;5053023;28;20082;-94
2022/01/19 19:38:08;;;;;;;67.15;29.10;;;-3.90;99.90;;;;;;5052854;28;20025;-94
2022/01/19 19:40:33;;;;;;;61.88;28.48;;;-3.80;99.90;;;;;;5052837;28;20388;-95
2022/01/19 19:42:59;;;;;;;67.72;27.15;;;-3.70;99.90;;;;;;5052606;28;20112;-95
2022/01/19 19:45:25;;;;;;;55.28;24.23;;;-3.60;99.90;;;;;;5053651;28;20032;-95
2022/01/19 19:47:53;;;;;;;63.80;26.50;;;-3.50;99.90;;;;;;5056857;28;20017;-95
2022/01/19 19:50:22;;;;;;;58.33;23.67;;;-3.40;99.90;;;;;;5056408;28;20029;-95
2022/01/19 19:52:49;;;;;;;55.22;25.40;;;-3.40;99.90;;;;;;5056961;28;20025;-96
2022/01/19 19:55:15;;;;;;;57.50;24.48;;;-3.30;99.90;;;;;;5056532;28;20408;-95
2022/01/19 19:57:42;;;;;;;65.38;28.05;;;-3.20;99.90;;;;;;5056672;28;20530;-95
2022/01/19 20:00:14;;;;;;;65.72;26.80;;;-3.10;99.90;;;;;;5055953;28;20052;-94
2022/01/19 20:02:39;;;;;;;60.25;26.33;;;-3.00;99.90;;;;;;5056339;28;20426;-94
2022/01/19 20:05:05;;;;;;;60.88;25.83;;;-2.90;99.90;;;;;;5056063;28;20112;-94
2022/01/19 20:07:31;;;;;;;51.00;23.23;;;-2.80;99.90;;;;;;5056303;28;20021;-94
2022/01/19 20:09:57;;;;;;;48.85;22.17;;;-2.80;99.90;;;;;;5056075;28;20036;-95
2022/01/19 20:12:22;;;;;;;49.95;23.33;;;-2.70;99.90;;;;;;5056092;28;20036;-95
2022/01/19 20:14:48;;;;;;;54.25;23.65;;;-2.70;99.90;;;;;;5056280;28;20123;-94
2022/01/19 20:17:16;;;;;;;60.50;29.25;;;-2.70;99.90;;;;;;5056161;28;20029;-96
2022/01/19 20:19:44;;;;;;;66.40;30.92;;;-2.70;99.90;;;;;;5055892;28;20025;-94
2022/01/19 20:22:10;;;;;;;71.47;30.20;;;-2.70;99.90;;;;;;5055873;28;20021;-94
2022/01/19 20:24:37;;;;;;;68.45;29.30;;;-2.60;99.90;;;;;;5056848;28;20065;-95
2022/01/19 20:27:05;;;;;;;69.88;31.33;;;-2.50;99.90;;;;;;5057399;28;20098;-94
2022/01/19 20:29:31;;;;;;;70.15;32.42;;;-2.50;99.90;;;;;;5055617;28;20056;-95
2022/01/19 20:31:57;;;;;;;76.18;33.70;;;-2.40;99.90;;;;;;5055529;28;20025;-95
2022/01/19 20:34:23;;;;;;;82.53;34.03;;;-2.40;99.90;;;;;;5055708;28;20025;-94
2022/01/19 20:36:49;;;;;;;72.82;30.52;;;-2.40;99.90;;;;;;5056101;28;20475;-94
2022/01/19 20:39:16;;;;;;;79.25;33.35;;;-2.30;99.90;;;;;;5055636;28;20036;-94
2022/01/19 20:41:42;;;;;;;83.13;34.47;;;-2.30;99.90;;;;;;5055486;28;20025;-94
2022/01/19 20:44:12;;;;;;;102.68;45.85;;;-2.30;99.90;;;;;;5055489;28;20024;-94
2022/01/19 20:46:38;;;;;;;162.20;60.08;;;-2.30;99.90;;;;;;5055369;28;20025;-94
2022/01/19 20:49:05;;;;;;;156.73;58.35;;;-2.30;99.90;;;;;;5055774;28;20059;-94
2022/01/19 20:51:30;;;;;;;109.97;41.63;;;-2.30;99.90;;;;;;5057130;28;20025;-94
2022/01/19 20:53:56;;;;;;;114.60;43.70;;;-2.30;99.90;;;;;;5055695;28;20059;-95
2022/01/19 20:56:22;;;;;;;83.28;34.00;;;-2.20;99.90;;;;;;5055190;28;20165;-95
2022/01/19 20:58:47;;;;;;;88.55;36.75;;;-2.20;99.90;;;;;;5051046;28;20045;-94
2022/01/19 21:01:13;;;;;;;74.53;31.35;;;-2.20;99.90;;;;;;5035108;28;20029;-94
2022/01/19 21:03:39;;;;;;;76.13;33.67;;;-2.10;99.90;;;;;;5035178;28;20108;-94
2022/01/19 21:06:04;;;;;;;71.45;30.15;;;-2.10;99.90;;;;;;5019117;28;20025;-94
2022/01/19 21:08:30;;;;;;;58.50;26.38;;;-2.10;99.90;;;;;;5035044;28;20034;-94
2022/01/19 21:10:56;;;;;;;75.88;31.30;;;-2.10;99.90;;;;;;5035903;28;20052;-93
2022/01/19 21:13:21;;;;;;;103.35;39.78;;;-2.10;99.90;;;;;;5035018;28;20032;-94
2022/01/19 21:15:47;;;;;;;98.60;41.08;;;-2.10;99.90;;;;;;5035267;28;20025;-95
2022/01/19 21:18:13;;;;;;;89.93;36.22;;;-2.10;99.90;;;;;;5034932;28;20037;-95
2022/01/19 21:20:39;;;;;;;124.03;48.50;;;-2.00;99.90;;;;;;5034904;28;20022;-94
2022/01/19 21:23:06;;;;;;;111.65;43.55;;;-2.00;99.90;;;;;;5034855;28;20032;-94
2022/01/19 21:25:31;;;;;;;89.85;36.15;;;-2.00;99.90;;;;;;5034864;28;20025;-95
2022/01/19 21:27:57;;;;;;;81.85;32.30;;;-2.00;99.90;;;;;;5034720;28;20033;-94
2022/01/19 21:30:23;;;;;;;89.40;36.30;;;-2.10;99.90;;;;;;5034744;28;20029;-94
2022/01/19 21:32:52;;;;;;;74.60;30.63;;;-2.10;99.90;;;;;;5034621;28;20116;-95
2022/01/19 21:35:18;;;;;;;79.05;31.63;;;-2.10;99.90;;;;;;5034624;28;20439;-95
2022/01/19 21:37:45;;;;;;;83.20;35.47;;;-2.10;99.90;;;;;;5034508;28;20032;-94
2022/01/19 21:40:12;;;;;;;102.80;41.85;;;-2.10;99.90;;;;;;5034669;28;20058;-94
2022/01/19 21:42:37;;;;;;;96.65;38.67;;;-2.10;99.90;;;;;;5034508;28;20029;-94
2022/01/19 21:45:04;;;;;;;89.85;36.60;;;-2.10;99.90;;;;;;5034482;28;20025;-95
2022/01/19 21:47:31;;;;;;;74.72;31.30;;;-2.10;99.90;;;;;;5034410;28;20029;-94
2022/01/19 21:49:57;;;;;;;82.93;34.60;;;-2.10;99.90;;;;;;5034650;28;20026;-94
2022/01/19 21:52:22;;;;;;;64.75;29.20;;;-2.10;99.90;;;;;;5034156;28;20505;-95
2022/01/19 21:54:48;;;;;;;56.50;24.58;;;-2.10;99.90;;;;;;5034303;28;20361;-94
2022/01/19 21:57:14;;;;;;;69.18;26.92;;;-2.10;99.90;;;;;;5034188;28;20025;-95
2022/01/19 21:59:40;;;;;;;58.28;24.65;;;-2.00;99.90;;;;;;5034340;28;20060;-94
2022/01/19 22:02:07;;;;;;;49.00;22.92;;;-2.00;99.90;;;;;;5035178;28;20432;-94
2022/01/19 22:07:54;;;;;;;44.40;20.83;;;-1.90;99.90;;;;;;5034889;28;20430;-94
2022/01/19 22:10:24;;;;;;;40.25;19.05;;;-1.90;99.90;;;;;;5034119;28;20033;-94
2022/01/19 22:12:51;;;;;;;33.58;18.13;;;-1.80;99.90;;;;;;5033969;28;20029;-94
2022/01/19 22:15:17;;;;;;;46.83;20.13;;;-1.80;99.90;;;;;;5033895;28;20033;-94
2022/01/19 22:17:43;;;;;;;41.85;19.63;;;-1.70;99.90;;;;;;5033947;28;20533;-94
2022/01/19 22:20:09;;;;;;;50.10;23.42;;;-1.70;99.90;;;;;;5034778;28;20029;-94
2022/01/19 22:22:35;;;;;;;43.85;20.77;;;-1.70;99.90;;;;;;5033989;28;20494;-93
2022/01/19 22:25:02;;;;;;;46.80;21.70;;;-1.70;99.90;;;;;;5033637;28;20030;-93
2022/01/19 22:27:28;;;;;;;44.75;22.73;;;-1.70;99.90;;;;;;5033767;28;20026;-93
2022/01/19 22:29:54;;;;;;;56.45;25.38;;;-1.70;99.90;;;;;;5033755;28;20035;-94
2022/01/19 22:32:20;;;;;;;59.67;26.98;;;-1.70;99.90;;;;;;5033704;28;20432;-94
2022/01/19 22:34:46;;;;;;;50.08;21.92;;;-1.70;99.90;;;;;;5033725;28;20029;-94
2022/01/19 22:37:12;;;;;;;40.75;19.27;;;-1.70;99.90;;;;;;5033656;28;20056;-93
2022/01/19 22:39:37;;;;;;;41.63;17.77;;;-1.70;99.90;;;;;;5033556;28;20037;-95
2022/01/19 22:42:04;;;;;;;37.95;18.33;;;-1.60;99.90;;;;;;5033784;28;20025;-94
2022/01/19 22:44:30;;;;;;;46.28;21.02;;;-1.70;99.90;;;;;;5033500;28;20032;-94
2022/01/19 22:46:56;;;;;;;45.80;22.60;;;-1.70;99.90;;;;;;5033423;28;20045;-94
2022/01/19 22:49:23;;;;;;;60.47;25.08;;;-1.70;99.90;;;;;;5033604;28;20031;-94
2022/01/19 22:51:50;;;;;;;63.38;27.15;;;-1.70;99.90;;;;;;5033411;28;20030;-94